createdAt,value
2022-09-26T00:01:39.882Z,13.08
2022-09-26T00:16:41.843Z,12.34
2022-09-26T00:31:44.626Z,12.04
2022-09-26T00:46:48.257Z,12.28
2022-09-26T01:01:53.336Z,13.15
2022-09-26T01:16:56.374Z,14.43
2022-09-26T01:32:25.435Z,13.04
2022-09-26T01:47:36.138Z,13.30
2022-09-26T02:02:40.162Z,13.95
2022-09-26T02:17:43.849Z,14.60
2022-09-26T02:32:45.319Z,13.65
2022-09-26T02:48:05.680Z,14.06
2022-09-26T03:03:18.123Z,14.04
2022-09-26T03:18:21.042Z,14.18
2022-09-26T03:33:22.537Z,14.44
2022-09-26T03:48:23.973Z,13.42
2022-09-26T04:03:27.483Z,14.00
2022-09-26T04:18:29.345Z,14.45
2022-09-26T04:33:32.269Z,13.92
2022-09-26T04:48:33.748Z,14.65
2022-09-26T05:03:36.701Z,14.95
2022-09-26T05:18:39.308Z,15.31
2022-09-26T05:33:40.980Z,17.79
2022-09-26T05:48:42.499Z,17.51
2022-09-26T06:03:45.041Z,18.90
2022-09-26T06:18:47.162Z,18.38
2022-09-26T06:33:53.299Z,22.07
2022-09-26T06:48:55.311Z,20.91
2022-09-26T07:03:56.779Z,19.84
2022-09-26T07:18:58.258Z,18.74
2022-09-26T07:33:59.717Z,18.36
2022-09-26T07:49:19.802Z,19.88
2022-09-26T08:04:21.231Z,22.27
2022-09-26T08:19:23.092Z,22.65
2022-09-26T08:34:25.819Z,21.68
2022-09-26T08:49:40.338Z,20.91
2022-09-26T09:04:53.660Z,21.06
2022-09-26T09:20:08.904Z,23.55
2022-09-26T09:35:15.056Z,22.92
2022-09-26T09:50:41.565Z,22.81
2022-09-26T10:05:53.499Z,24.68
2022-09-26T10:21:08.969Z,23.29
2022-09-26T10:36:20.479Z,25.60
2022-09-26T10:51:28.437Z,25.99
2022-09-26T11:06:34.392Z,25.79
2022-09-26T11:21:35.823Z,25.69
2022-09-26T11:36:47.026Z,25.07
2022-09-26T11:52:00.838Z,27.21
2022-09-26T12:07:17.574Z,25.95
2022-09-26T12:22:41.659Z,27.73
2022-09-26T12:38:03.218Z,28.63
2022-09-26T12:53:05.396Z,25.88
2022-09-26T13:08:25.803Z,26.06
2022-09-26T13:23:31.516Z,25.26
2022-09-26T13:38:42.086Z,24.74
2022-09-26T13:53:46.371Z,24.98
2022-09-26T14:09:19.899Z,24.30
2022-09-26T14:24:27.497Z,24.03
2022-09-26T14:39:34.777Z,23.87
2022-09-26T14:54:40.583Z,23.97
2022-09-26T15:09:42.047Z,23.50
2022-09-26T15:24:43.622Z,23.16
2022-09-26T15:39:45.193Z,23.13
2022-09-26T15:54:46.798Z,22.32
2022-09-26T16:09:50.904Z,22.30
2022-09-26T16:24:52.776Z,21.94
2022-09-26T16:39:59.498Z,22.23
2022-09-26T16:55:02.326Z,22.00
2022-09-26T17:10:03.918Z,21.74
2022-09-26T17:25:05.680Z,21.77
2022-09-26T17:40:14.005Z,21.32
2022-09-26T17:55:15.746Z,21.42
2022-09-26T18:10:19.545Z,21.03
2022-09-26T18:25:22.745Z,20.77
2022-09-26T18:40:26.229Z,20.50
2022-09-26T18:55:46.624Z,19.67
2022-09-26T19:10:48.469Z,18.04
2022-09-26T19:25:50.231Z,17.76
2022-09-26T19:40:53.725Z,17.90
2022-09-26T19:55:55.860Z,16.89
2022-09-26T20:10:57.857Z,17.05
2022-09-26T20:25:59.337Z,16.45
2022-09-26T20:41:03.021Z,16.17
2022-09-26T20:56:08.708Z,16.32
2022-09-26T21:11:11.999Z,15.93
2022-09-26T21:26:21.109Z,16.83
2022-09-26T21:41:23.451Z,16.23
2022-09-26T21:56:28.767Z,16.28
2022-09-26T22:16:09.040Z,16.67
2022-09-26T22:31:11.033Z,16.29
2022-09-26T22:46:13.156Z,15.99
2022-09-26T23:01:18.902Z,16.52
2022-09-26T23:16:21.497Z,15.89
2022-09-26T23:31:23.633Z,15.63
2022-09-26T23:46:25.227Z,15.45
